sensor_id;sensor_type;location;lat;lon;timestamp;noise_LAeq;noise_LA_min;noise_LA_max;noise_LA01;noise_LA95
61249;Laerm;47119;49.130;9.218;2023-08-20T00:00:53;46.13;44.96;50.60;;
61249;Laerm;47119;49.130;9.218;2023-08-20T00:03:20;46.11;44.93;49.31;;
61249;Laerm;47119;49.130;9.218;2023-08-20T00:05:51;46.11;44.83;49.45;;
61249;Laerm;47119;49.130;9.218;2023-08-20T00:08:18;46.14;44.92;49.74;;
61249;Laerm;47119;49.130;9.218;2023-08-20T00:10:45;46.12;44.89;51.29;;
61249;Laerm;47119;49.130;9.218;2023-08-20T00:13:12;46.14;44.98;54.18;;
61249;Laerm;47119;49.130;9.218;2023-08-20T00:15:42;46.14;44.86;49.65;;
61249;Laerm;47119;49.130;9.218;2023-08-20T00:18:15;46.16;45.02;51.09;;
61249;Laerm;47119;49.130;9.218;2023-08-20T00:20:46;46.15;44.89;51.37;;
61249;Laerm;47119;49.130;9.218;2023-08-20T00:23:16;46.13;45.02;50.98;;
61249;Laerm;47119;49.130;9.218;2023-08-20T00:25:49;46.13;44.60;52.20;;
61249;Laerm;47119;49.130;9.218;2023-08-20T00:28:16;46.11;44.99;50.08;;
61249;Laerm;47119;49.130;9.218;2023-08-20T00:30:43;46.11;44.91;51.37;;
61249;Laerm;47119;49.130;9.218;2023-08-20T00:33:11;46.10;44.96;49.31;;
61249;Laerm;47119;49.130;9.218;2023-08-20T00:35:40;46.12;44.90;49.78;;
61249;Laerm;47119;49.130;9.218;2023-08-20T00:38:08;46.13;45.10;53.50;;
61249;Laerm;47119;49.130;9.218;2023-08-20T00:40:39;46.13;45.06;49.63;;
61249;Laerm;47119;49.130;9.218;2023-08-20T00:43:09;46.15;45.07;51.25;;
61249;Laerm;47119;49.130;9.218;2023-08-20T00:45:37;46.13;44.85;51.92;;
61249;Laerm;47119;49.130;9.218;2023-08-20T00:48:09;46.13;45.04;51.64;;
61249;Laerm;47119;49.130;9.218;2023-08-20T00:50:41;46.12;45.07;50.98;;
61249;Laerm;47119;49.130;9.218;2023-08-20T00:53:12;46.12;44.96;49.48;;
61249;Laerm;47119;49.130;9.218;2023-08-20T00:55:43;46.12;44.96;49.86;;
61249;Laerm;47119;49.130;9.218;2023-08-20T00:58:12;46.12;45.07;50.27;;
61249;Laerm;47119;49.130;9.218;2023-08-20T01:00:41;46.13;44.96;50.62;;
61249;Laerm;47119;49.130;9.218;2023-08-20T01:03:08;46.15;45.12;53.62;;
61249;Laerm;47119;49.130;9.218;2023-08-20T01:05:50;46.18;44.99;50.83;;
61249;Laerm;47119;49.130;9.218;2023-08-20T01:08:34;46.12;44.84;50.95;;
61249;Laerm;47119;49.130;9.218;2023-08-20T01:11:12;46.12;45.08;51.66;;
61249;Laerm;47119;49.130;9.218;2023-08-20T01:13:43;46.13;44.91;53.34;;
61249;Laerm;47119;49.130;9.218;2023-08-20T01:16:12;46.12;44.75;50.56;;
61249;Laerm;47119;49.130;9.218;2023-08-20T01:18:39;46.15;45.03;50.52;;
61249;Laerm;47119;49.130;9.218;2023-08-20T01:21:30;46.14;44.96;49.22;;
61249;Laerm;47119;49.130;9.218;2023-08-20T01:24:17;46.14;44.99;50.27;;
61249;Laerm;47119;49.130;9.218;2023-08-20T01:27:10;46.13;45.08;49.64;;
61249;Laerm;47119;49.130;9.218;2023-08-20T01:29:49;46.16;44.98;50.70;;
61249;Laerm;47119;49.130;9.218;2023-08-20T01:32:17;46.13;44.95;53.26;;
61249;Laerm;47119;49.130;9.218;2023-08-20T01:34:46;46.12;45.01;49.43;;
61249;Laerm;47119;49.130;9.218;2023-08-20T01:37:14;46.11;44.84;50.12;;
61249;Laerm;47119;49.130;9.218;2023-08-20T01:39:42;46.12;44.97;49.61;;
61249;Laerm;47119;49.130;9.218;2023-08-20T01:42:09;46.13;44.98;49.63;;
61249;Laerm;47119;49.130;9.218;2023-08-20T01:44:36;46.12;45.01;53.01;;
61249;Laerm;47119;49.130;9.218;2023-08-20T01:47:08;46.11;44.90;49.85;;
61249;Laerm;47119;49.130;9.218;2023-08-20T01:49:38;46.12;45.06;49.25;;
61249;Laerm;47119;49.130;9.218;2023-08-20T01:52:06;46.13;45.00;49.74;;
61249;Laerm;47119;49.130;9.218;2023-08-20T01:54:33;46.13;44.97;50.26;;
61249;Laerm;47119;49.130;9.218;2023-08-20T01:57:02;46.15;44.98;49.52;;
61249;Laerm;47119;49.130;9.218;2023-08-20T01:59:29;46.13;44.95;48.87;;
61249;Laerm;47119;49.130;9.218;2023-08-20T02:01:58;46.16;45.00;49.08;;
61249;Laerm;47119;49.130;9.218;2023-08-20T02:04:27;46.14;45.02;49.51;;
61249;Laerm;47119;49.130;9.218;2023-08-20T02:06:59;46.16;44.99;49.36;;
61249;Laerm;47119;49.130;9.218;2023-08-20T02:09:27;46.18;45.06;50.50;;
61249;Laerm;47119;49.130;9.218;2023-08-20T02:11:55;46.13;45.08;49.96;;
61249;Laerm;47119;49.130;9.218;2023-08-20T02:14:22;46.14;45.01;49.71;;
61249;Laerm;47119;49.130;9.218;2023-08-20T02:16:56;46.15;45.01;49.22;;
61249;Laerm;47119;49.130;9.218;2023-08-20T02:19:26;46.17;45.02;50.28;;
61249;Laerm;47119;49.130;9.218;2023-08-20T02:21:55;46.15;44.94;49.25;;
61249;Laerm;47119;49.130;9.218;2023-08-20T02:24:26;46.15;45.06;52.40;;
61249;Laerm;47119;49.130;9.218;2023-08-20T02:26:53;46.17;45.04;49.74;;
61249;Laerm;47119;49.130;9.218;2023-08-20T02:29:21;46.15;45.07;49.78;;
61249;Laerm;47119;49.130;9.218;2023-08-20T02:31:51;46.16;45.02;50.03;;
61249;Laerm;47119;49.130;9.218;2023-08-20T02:34:18;46.15;45.04;49.66;;
61249;Laerm;47119;49.130;9.218;2023-08-20T02:36:47;46.15;45.07;52.56;;
61249;Laerm;47119;49.130;9.218;2023-08-20T02:39:16;46.17;44.65;57.42;;
61249;Laerm;47119;49.130;9.218;2023-08-20T02:41:43;46.15;45.06;50.03;;
61249;Laerm;47119;49.130;9.218;2023-08-20T02:44:10;46.17;45.06;51.96;;
61249;Laerm;47119;49.130;9.218;2023-08-20T02:46:38;46.16;45.03;50.02;;
61249;Laerm;47119;49.130;9.218;2023-08-20T02:49:09;46.17;44.98;50.41;;
61249;Laerm;47119;49.130;9.218;2023-08-20T02:51:36;46.17;45.11;50.68;;
61249;Laerm;47119;49.130;9.218;2023-08-20T02:54:04;46.16;44.99;52.48;;
61249;Laerm;47119;49.130;9.218;2023-08-20T02:56:32;46.16;45.15;50.53;;
61249;Laerm;47119;49.130;9.218;2023-08-20T02:59:00;46.16;44.95;50.10;;
61249;Laerm;47119;49.130;9.218;2023-08-20T03:01:27;46.16;45.01;49.87;;
61249;Laerm;47119;49.130;9.218;2023-08-20T03:03:56;46.19;44.91;50.16;;
61249;Laerm;47119;49.130;9.218;2023-08-20T03:06:23;46.18;45.09;49.51;;
61249;Laerm;47119;49.130;9.218;2023-08-20T03:08:51;46.19;45.08;49.42;;
61249;Laerm;47119;49.130;9.218;2023-08-20T03:11:18;46.16;45.12;48.85;;
61249;Laerm;47119;49.130;9.218;2023-08-20T03:13:46;46.20;45.24;50.22;;
61249;Laerm;47119;49.130;9.218;2023-08-20T03:16:14;46.20;44.92;49.55;;
61249;Laerm;47119;49.130;9.218;2023-08-20T03:18:41;46.19;44.99;49.82;;
61249;Laerm;47119;49.130;9.218;2023-08-20T03:21:08;46.21;45.01;51.80;;
61249;Laerm;47119;49.130;9.218;2023-08-20T03:23:36;46.20;45.00;49.20;;
61249;Laerm;47119;49.130;9.218;2023-08-20T03:26:03;46.20;45.09;48.81;;
61249;Laerm;47119;49.130;9.218;2023-08-20T03:28:30;46.20;44.82;48.86;;
61249;Laerm;47119;49.130;9.218;2023-08-20T03:31:01;46.20;45.09;48.69;;
61249;Laerm;47119;49.130;9.218;2023-08-20T03:33:31;46.21;44.93;48.58;;
61249;Laerm;47119;49.130;9.218;2023-08-20T03:35:58;46.22;45.14;50.44;;
61249;Laerm;47119;49.130;9.218;2023-08-20T03:38:27;46.21;45.14;48.43;;
61249;Laerm;47119;49.130;9.218;2023-08-20T03:40:55;46.21;45.14;48.68;;
61249;Laerm;47119;49.130;9.218;2023-08-20T03:43:22;46.20;45.13;48.63;;
61249;Laerm;47119;49.130;9.218;2023-08-20T03:45:50;46.20;45.10;51.68;;
61249;Laerm;47119;49.130;9.218;2023-08-20T03:48:20;46.20;45.02;49.51;;
61249;Laerm;47119;49.130;9.218;2023-08-20T03:50:47;46.22;45.09;50.29;;
61249;Laerm;47119;49.130;9.218;2023-08-20T03:53:15;46.20;45.15;48.98;;
61249;Laerm;47119;49.130;9.218;2023-08-20T03:55:48;46.20;45.11;49.12;;
61249;Laerm;47119;49.130;9.218;2023-08-20T03:58:16;46.20;45.06;51.01;;
61249;Laerm;47119;49.130;9.218;2023-08-20T04:00:44;46.20;44.98;49.05;;
61249;Laerm;47119;49.130;9.218;2023-08-20T04:03:11;46.20;45.09;49.90;;
61249;Laerm;47119;49.130;9.218;2023-08-20T04:05:40;46.21;45.14;52.03;;
61249;Laerm;47119;49.130;9.218;2023-08-20T04:08:07;46.21;44.71;51.91;;
61249;Laerm;47119;49.130;9.218;2023-08-20T04:10:35;46.19;45.12;52.04;;
61249;Laerm;47119;49.130;9.218;2023-08-20T04:13:05;46.22;45.21;50.38;;
61249;Laerm;47119;49.130;9.218;2023-08-20T04:15:32;46.20;45.04;49.17;;
61249;Laerm;47119;49.130;9.218;2023-08-20T04:18:00;46.20;45.01;48.88;;
61249;Laerm;47119;49.130;9.218;2023-08-20T04:20:31;46.19;44.96;48.65;;
61249;Laerm;47119;49.130;9.218;2023-08-20T04:23:00;46.19;45.05;49.00;;
61249;Laerm;47119;49.130;9.218;2023-08-20T04:25:28;46.19;45.12;50.02;;
61249;Laerm;47119;49.130;9.218;2023-08-20T04:27:55;46.19;45.16;49.37;;
61249;Laerm;47119;49.130;9.218;2023-08-20T04:30:23;46.19;44.75;48.59;;
61249;Laerm;47119;49.130;9.218;2023-08-20T04:32:50;46.19;45.13;48.89;;
61249;Laerm;47119;49.130;9.218;2023-08-20T04:35:18;46.20;45.06;48.57;;
61249;Laerm;47119;49.130;9.218;2023-08-20T04:37:45;46.22;45.12;49.04;;
61249;Laerm;47119;49.130;9.218;2023-08-20T04:40:14;46.22;45.17;50.61;;
61249;Laerm;47119;49.130;9.218;2023-08-20T04:42:41;46.20;45.10;50.04;;
61249;Laerm;47119;49.130;9.218;2023-08-20T04:45:09;46.23;44.81;50.12;;
61249;Laerm;47119;49.130;9.218;2023-08-20T04:47:38;46.23;44.96;50.31;;
61249;Laerm;47119;49.130;9.218;2023-08-20T04:50:06;46.24;45.09;50.89;;
61249;Laerm;47119;49.130;9.218;2023-08-20T04:52:34;46.22;45.15;49.92;;
61249;Laerm;47119;49.130;9.218;2023-08-20T04:55:02;46.22;45.09;50.10;;
61249;Laerm;47119;49.130;9.218;2023-08-20T04:57:32;46.22;44.99;51.85;;
61249;Laerm;47119;49.130;9.218;2023-08-20T04:59:59;46.22;45.18;50.42;;
61249;Laerm;47119;49.130;9.218;2023-08-20T05:02:52;46.24;45.21;49.98;;
61249;Laerm;47119;49.130;9.218;2023-08-20T05:05:22;46.22;45.19;51.05;;
61249;Laerm;47119;49.130;9.218;2023-08-20T05:07:49;46.22;44.99;48.44;;
61249;Laerm;47119;49.130;9.218;2023-08-20T05:10:19;46.24;45.06;49.87;;
61249;Laerm;47119;49.130;9.218;2023-08-20T05:12:48;46.24;44.74;49.98;;
61249;Laerm;47119;49.130;9.218;2023-08-20T05:15:19;46.24;45.24;51.97;;
61249;Laerm;47119;49.130;9.218;2023-08-20T05:17:47;46.24;44.95;49.95;;
61249;Laerm;47119;49.130;9.218;2023-08-20T05:20:14;46.25;44.99;49.51;;
61249;Laerm;47119;49.130;9.218;2023-08-20T05:22:43;46.25;45.09;50.98;;
61249;Laerm;47119;49.130;9.218;2023-08-20T05:25:11;46.24;45.19;51.98;;
61249;Laerm;47119;49.130;9.218;2023-08-20T05:27:41;46.25;45.14;49.57;;
61249;Laerm;47119;49.130;9.218;2023-08-20T05:30:11;46.23;45.14;48.49;;
61249;Laerm;47119;49.130;9.218;2023-08-20T05:32:38;46.22;45.02;52.15;;
61249;Laerm;47119;49.130;9.218;2023-08-20T05:35:07;46.22;44.91;51.18;;
61249;Laerm;47119;49.130;9.218;2023-08-20T05:37:35;46.20;44.83;49.78;;
61249;Laerm;47119;49.130;9.218;2023-08-20T05:40:03;46.19;44.84;51.55;;
61249;Laerm;47119;49.130;9.218;2023-08-20T05:42:33;46.20;44.97;52.28;;
61249;Laerm;47119;49.130;9.218;2023-08-20T05:45:09;46.20;45.11;50.44;;
61249;Laerm;47119;49.130;9.218;2023-08-20T05:47:40;46.20;45.06;52.54;;
61249;Laerm;47119;49.130;9.218;2023-08-20T05:50:08;46.20;44.95;51.53;;
61249;Laerm;47119;49.130;9.218;2023-08-20T05:52:36;46.18;44.83;51.55;;
61249;Laerm;47119;49.130;9.218;2023-08-20T05:55:07;46.19;45.10;52.68;;
61249;Laerm;47119;49.130;9.218;2023-08-20T05:57:35;46.17;44.90;52.01;;
61249;Laerm;47119;49.130;9.218;2023-08-20T06:00:04;46.18;45.05;50.61;;
61249;Laerm;47119;49.130;9.218;2023-08-20T06:02:40;46.21;45.06;52.53;;
61249;Laerm;47119;49.130;9.218;2023-08-20T06:05:09;46.25;45.01;52.71;;
61249;Laerm;47119;49.130;9.218;2023-08-20T06:07:38;46.24;44.80;52.67;;
61249;Laerm;47119;49.130;9.218;2023-08-20T06:10:07;46.21;45.05;50.61;;
61249;Laerm;47119;49.130;9.218;2023-08-20T06:12:35;46.21;44.98;50.26;;
61249;Laerm;47119;49.130;9.218;2023-08-20T06:15:03;46.24;45.17;52.49;;
61249;Laerm;47119;49.130;9.218;2023-08-20T06:17:31;46.27;45.12;52.65;;
61249;Laerm;47119;49.130;9.218;2023-08-20T06:19:59;46.25;44.97;52.73;;
61249;Laerm;47119;49.130;9.218;2023-08-20T06:22:26;46.25;45.03;51.07;;
61249;Laerm;47119;49.130;9.218;2023-08-20T06:24:54;46.22;45.04;50.64;;
61249;Laerm;47119;49.130;9.218;2023-08-20T06:27:21;46.19;45.03;52.94;;
61249;Laerm;47119;49.130;9.218;2023-08-20T06:29:48;46.19;45.14;52.97;;
61249;Laerm;47119;49.130;9.218;2023-08-20T06:32:15;46.23;44.82;53.28;;
61249;Laerm;47119;49.130;9.218;2023-08-20T06:34:42;46.20;45.22;52.83;;
61249;Laerm;47119;49.130;9.218;2023-08-20T06:37:11;46.18;45.11;52.92;;
61249;Laerm;47119;49.130;9.218;2023-08-20T06:39:38;46.19;45.10;52.92;;
61249;Laerm;47119;49.130;9.218;2023-08-20T06:42:06;46.18;45.03;52.60;;
61249;Laerm;47119;49.130;9.218;2023-08-20T06:44:33;46.17;44.97;53.70;;
61249;Laerm;47119;49.130;9.218;2023-08-20T06:47:01;46.23;45.13;53.54;;
61249;Laerm;47119;49.130;9.218;2023-08-20T06:49:28;46.29;45.07;53.22;;
61249;Laerm;47119;49.130;9.218;2023-08-20T06:51:55;46.32;45.22;53.50;;
61249;Laerm;47119;49.130;9.218;2023-08-20T06:54:24;46.30;45.17;53.70;;
61249;Laerm;47119;49.130;9.218;2023-08-20T06:56:52;46.31;45.09;53.82;;
61249;Laerm;47119;49.130;9.218;2023-08-20T06:59:19;46.32;44.98;53.82;;
61249;Laerm;47119;49.130;9.218;2023-08-20T07:01:52;46.17;44.93;53.62;;
61249;Laerm;47119;49.130;9.218;2023-08-20T07:04:21;46.16;44.74;53.81;;
61249;Laerm;47119;49.130;9.218;2023-08-20T07:06:56;46.14;45.06;53.79;;
61249;Laerm;47119;49.130;9.218;2023-08-20T07:09:29;46.08;45.06;47.58;;
61249;Laerm;47119;49.130;9.218;2023-08-20T07:11:56;46.05;44.72;47.46;;
61249;Laerm;47119;49.130;9.218;2023-08-20T07:14:24;46.06;44.74;54.89;;
61249;Laerm;47119;49.130;9.218;2023-08-20T07:16:51;46.07;44.90;47.05;;
61249;Laerm;47119;49.130;9.218;2023-08-20T07:19:18;46.07;44.68;47.19;;
61249;Laerm;47119;49.130;9.218;2023-08-20T07:21:45;46.08;44.67;54.55;;
61249;Laerm;47119;49.130;9.218;2023-08-20T07:24:13;46.11;45.11;47.79;;
61249;Laerm;47119;49.130;9.218;2023-08-20T07:26:41;46.08;44.94;47.90;;
61249;Laerm;47119;49.130;9.218;2023-08-20T07:29:09;46.02;44.84;47.55;;
61249;Laerm;47119;49.130;9.218;2023-08-20T07:31:37;46.03;44.82;47.92;;
61249;Laerm;47119;49.130;9.218;2023-08-20T07:34:04;46.00;44.85;47.75;;
61249;Laerm;47119;49.130;9.218;2023-08-20T07:36:31;46.01;44.74;47.15;;
61249;Laerm;47119;49.130;9.218;2023-08-20T07:38:59;45.98;44.84;47.59;;
61249;Laerm;47119;49.130;9.218;2023-08-20T07:41:27;46.03;44.91;52.80;;
61249;Laerm;47119;49.130;9.218;2023-08-20T07:43:56;46.03;44.79;54.75;;
61249;Laerm;47119;49.130;9.218;2023-08-20T07:46:23;46.02;44.86;55.32;;
61249;Laerm;47119;49.130;9.218;2023-08-20T07:48:53;46.01;44.74;49.28;;
61249;Laerm;47119;49.130;9.218;2023-08-20T07:51:20;45.99;44.90;47.78;;
61249;Laerm;47119;49.130;9.218;2023-08-20T07:53:48;46.00;44.86;53.94;;
61249;Laerm;47119;49.130;9.218;2023-08-20T07:56:15;46.00;44.85;47.05;;
61249;Laerm;47119;49.130;9.218;2023-08-20T07:59:14;45.99;44.72;55.13;;
61249;Laerm;47119;49.130;9.218;2023-08-20T08:01:43;45.98;44.84;53.35;;
61249;Laerm;47119;49.130;9.218;2023-08-20T08:04:10;45.99;44.85;47.78;;
61249;Laerm;47119;49.130;9.218;2023-08-20T08:07:05;46.01;44.87;53.36;;
61249;Laerm;47119;49.130;9.218;2023-08-20T08:12:31;46.00;44.81;47.06;;
61249;Laerm;47119;49.130;9.218;2023-08-20T08:14:59;45.98;44.86;47.98;;
61249;Laerm;47119;49.130;9.218;2023-08-20T08:17:26;45.98;44.91;47.65;;
61249;Laerm;47119;49.130;9.218;2023-08-20T08:19:54;45.99;44.92;47.23;;
61249;Laerm;47119;49.130;9.218;2023-08-20T08:22:22;45.99;44.66;47.88;;
61249;Laerm;47119;49.130;9.218;2023-08-20T08:24:50;45.97;44.84;55.38;;
61249;Laerm;47119;49.130;9.218;2023-08-20T08:27:17;45.95;44.77;47.20;;
61249;Laerm;47119;49.130;9.218;2023-08-20T08:29:56;46.01;44.87;55.76;;
61249;Laerm;47119;49.130;9.218;2023-08-20T21:36:53;46.80;45.34;52.03;;
61249;Laerm;47119;49.130;9.218;2023-08-20T21:39:20;46.88;45.47;51.47;;
61249;Laerm;47119;49.130;9.218;2023-08-20T21:47:19;46.80;45.25;51.00;;
61249;Laerm;47119;49.130;9.218;2023-08-20T21:49:52;46.91;45.27;52.08;;
61249;Laerm;47119;49.130;9.218;2023-08-20T21:52:23;46.88;45.10;50.72;;
61249;Laerm;47119;49.130;9.218;2023-08-20T21:54:50;46.81;45.41;51.22;;
61249;Laerm;47119;49.130;9.218;2023-08-20T21:57:19;46.79;45.30;50.75;;
61249;Laerm;47119;49.130;9.218;2023-08-20T21:59:51;46.79;45.28;50.44;;
61249;Laerm;47119;49.130;9.218;2023-08-20T22:02:18;46.79;45.50;50.76;;
61249;Laerm;47119;49.130;9.218;2023-08-20T22:04:47;46.80;45.39;51.04;;
61249;Laerm;47119;49.130;9.218;2023-08-20T22:07:14;46.84;45.03;50.94;;
61249;Laerm;47119;49.130;9.218;2023-08-20T22:09:42;46.89;45.40;50.94;;
61249;Laerm;47119;49.130;9.218;2023-08-20T22:12:12;46.79;45.23;50.90;;
61249;Laerm;47119;49.130;9.218;2023-08-20T22:14:39;46.87;45.08;52.62;;
61249;Laerm;47119;49.130;9.218;2023-08-20T22:17:06;46.83;45.22;52.03;;
61249;Laerm;47119;49.130;9.218;2023-08-20T22:19:33;46.84;45.20;51.00;;
61249;Laerm;47119;49.130;9.218;2023-08-20T22:22:06;46.87;45.36;50.96;;
61249;Laerm;47119;49.130;9.218;2023-08-20T22:24:33;46.77;45.22;50.76;;
61249;Laerm;47119;49.130;9.218;2023-08-20T22:27:01;46.83;45.26;52.62;;
61249;Laerm;47119;49.130;9.218;2023-08-20T22:29:28;46.88;45.08;51.69;;
61249;Laerm;47119;49.130;9.218;2023-08-20T22:31:56;46.73;45.30;51.79;;
61249;Laerm;47119;49.130;9.218;2023-08-20T22:34:23;46.88;45.12;50.83;;
61249;Laerm;47119;49.130;9.218;2023-08-20T22:36:50;46.91;45.40;51.10;;
61249;Laerm;47119;49.130;9.218;2023-08-20T22:39:18;46.90;45.22;53.10;;
61249;Laerm;47119;49.130;9.218;2023-08-20T22:41:48;46.91;45.37;51.91;;
61249;Laerm;47119;49.130;9.218;2023-08-20T22:44:17;46.83;45.16;54.61;;
61249;Laerm;47119;49.130;9.218;2023-08-20T22:46:44;46.53;45.15;50.73;;
61249;Laerm;47119;49.130;9.218;2023-08-20T22:49:11;46.51;45.10;49.83;;
61249;Laerm;47119;49.130;9.218;2023-08-20T22:51:39;46.53;45.36;50.38;;
61249;Laerm;47119;49.130;9.218;2023-08-20T22:54:10;46.45;45.13;50.61;;
61249;Laerm;47119;49.130;9.218;2023-08-20T22:56:40;46.52;45.07;52.09;;
61249;Laerm;47119;49.130;9.218;2023-08-20T22:59:18;46.50;45.04;49.75;;
61249;Laerm;47119;49.130;9.218;2023-08-20T23:01:48;46.53;45.25;49.88;;
61249;Laerm;47119;49.130;9.218;2023-08-20T23:04:18;46.52;45.22;53.52;;
61249;Laerm;47119;49.130;9.218;2023-08-20T23:06:51;46.57;44.92;50.94;;
61249;Laerm;47119;49.130;9.218;2023-08-20T23:09:18;46.53;45.24;50.67;;
61249;Laerm;47119;49.130;9.218;2023-08-20T23:11:47;46.48;45.00;50.63;;
61249;Laerm;47119;49.130;9.218;2023-08-20T23:14:22;46.68;45.19;62.87;;
61249;Laerm;47119;49.130;9.218;2023-08-20T23:16:51;46.83;45.19;51.11;;
61249;Laerm;47119;49.130;9.218;2023-08-20T23:19:21;46.75;45.43;51.71;;
61249;Laerm;47119;49.130;9.218;2023-08-20T23:21:51;46.78;45.08;50.59;;
61249;Laerm;47119;49.130;9.218;2023-08-20T23:24:19;46.80;45.12;50.59;;
61249;Laerm;47119;49.130;9.218;2023-08-20T23:26:46;46.81;45.18;50.48;;
61249;Laerm;47119;49.130;9.218;2023-08-20T23:32:38;46.81;45.04;51.74;;
61249;Laerm;47119;49.130;9.218;2023-08-20T23:35:09;46.73;45.26;50.48;;
61249;Laerm;47119;49.130;9.218;2023-08-20T23:37:48;46.75;45.42;51.79;;
61249;Laerm;47119;49.130;9.218;2023-08-20T23:40:25;46.74;45.26;50.89;;
61249;Laerm;47119;49.130;9.218;2023-08-20T23:43:15;46.79;44.96;51.45;;
61249;Laerm;47119;49.130;9.218;2023-08-20T23:45:57;46.70;45.31;50.30;;
61249;Laerm;47119;49.130;9.218;2023-08-20T23:48:39;46.75;45.24;50.83;;
61249;Laerm;47119;49.130;9.218;2023-08-20T23:51:06;46.69;45.24;51.09;;
61249;Laerm;47119;49.130;9.218;2023-08-20T23:53:33;46.86;45.23;67.09;;
61249;Laerm;47119;49.130;9.218;2023-08-20T23:56:05;46.79;45.36;51.92;;
61249;Laerm;47119;49.130;9.218;2023-08-20T23:58:37;46.81;45.42;51.76;;
